13C weather

Lakeview-Airport-Griffith Field
Lakeview, Michigan, United States

Public forecast

Using degrees Fahrenheit for public forecast. Weather courtesy of forecast.io.

METAR (pilot weather report)

Closest report is Roben Hood Airport, 19.3 nm (35.7 km) NNW. Retrieved 2019/09/19 17:39 UTC (6 minutes ago):

KRQB 191739Z AUTO 13003KT 10SM CLR 25/14 A3014 RMK AO2 T02490139

TAF (pilot weather forecast)

Closest forecast is Gerald R. Ford International Airport, 36.1 nm (66.9 km) SSW. Retrieved 2019/09/19 12:24 UTC (5 hours ago):

TAF KGRR 191121Z 1912/2012 11005KT P6SM BKN220 FM191800 22008KT P6SM SCT250 FM200200 12005KT P6SM FEW250